createdAt,value
2017-11-22T00:00:14.275Z,1002.5
2017-11-22T00:01:22.909Z,1002.57
2017-11-22T00:02:31.537Z,1002.57
2017-11-22T00:03:40.161Z,1002.53
2017-11-22T00:04:48.787Z,1002.53
2017-11-22T00:05:57.418Z,1002.52
2017-11-22T00:07:06.320Z,1002.46
2017-11-22T00:08:14.953Z,1002.44
2017-11-22T00:09:23.577Z,1002.42
2017-11-22T00:10:32.208Z,1002.38
2017-11-22T00:11:40.838Z,1002.36
2017-11-22T00:12:49.457Z,1002.39
2017-11-22T00:13:58.084Z,1002.44
2017-11-22T00:15:06.729Z,1002.27
2017-11-22T00:16:15.626Z,1002.36
2017-11-22T00:17:24.255Z,1002.38
2017-11-22T00:18:32.875Z,1002.36
2017-11-22T00:19:41.509Z,1002.36
2017-11-22T00:20:50.133Z,1002.34
2017-11-22T00:21:58.754Z,1002.3
2017-11-22T00:23:07.386Z,1002.36
2017-11-22T00:24:16.017Z,1002.31
2017-11-22T00:25:24.641Z,1002.32
2017-11-22T00:26:33.269Z,1002.35
2017-11-22T00:27:41.896Z,1002.35
2017-11-22T00:28:50.521Z,1002.36
2017-11-22T00:29:59.153Z,1002.38
2017-11-22T00:31:08.438Z,1002.33
2017-11-22T00:32:17.334Z,1002.23
2017-11-22T00:33:25.965Z,1002.28
2017-11-22T00:34:34.586Z,1002.24
2017-11-22T00:35:43.218Z,1002.27
2017-11-22T00:36:51.856Z,1002.28
2017-11-22T00:38:00.746Z,1002.24
2017-11-22T00:39:09.651Z,1002.3
2017-11-22T00:40:18.535Z,1002.25
2017-11-22T00:41:27.165Z,1002.3
2017-11-22T00:42:35.793Z,1002.28
2017-11-22T00:43:44.411Z,1002.25
2017-11-22T00:44:53.316Z,1002.23
2017-11-22T00:46:01.941Z,1002.26
2017-11-22T00:47:10.570Z,1002.25
2017-11-22T00:48:19.199Z,1002.2
2017-11-22T00:49:27.822Z,1002.21
2017-11-22T00:50:36.456Z,1002.18
2017-11-22T00:51:45.350Z,1002.18
2017-11-22T00:52:53.972Z,1002.16
2017-11-22T00:54:02.598Z,1002.17
2017-11-22T00:55:11.226Z,1002.22
2017-11-22T00:56:20.125Z,1002.21
2017-11-22T00:57:29.012Z,1002.17
2017-11-22T00:58:37.647Z,1002.18
2017-11-22T00:59:46.273Z,1002.1
2017-11-22T01:00:54.902Z,1002.1
2017-11-22T01:02:03.790Z,1002.09
2017-11-22T01:03:12.419Z,1002.09
2017-11-22T01:04:21.050Z,1002.11
2017-11-22T01:05:29.675Z,1002.06
2017-11-22T01:06:38.308Z,1002.06
2017-11-22T01:07:46.932Z,1002.13
2017-11-22T01:08:55.564Z,1002.02
2017-11-22T01:10:04.192Z,1002.05
2017-11-22T01:11:12.815Z,1002.04
2017-11-22T01:12:21.441Z,1002.02
2017-11-22T01:13:30.070Z,1002.04
2017-11-22T01:14:38.697Z,1002.09
2017-11-22T01:15:47.323Z,1002.1
2017-11-22T01:16:55.943Z,1002.1
2017-11-22T01:18:04.571Z,1002.09
2017-11-22T01:19:13.203Z,1002.07
2017-11-22T01:20:21.822Z,1002.09
2017-11-22T01:21:30.454Z,1002.09
2017-11-22T01:22:39.351Z,1002.09
2017-11-22T01:23:47.986Z,1002.11
2017-11-22T01:24:56.612Z,1002.09
2017-11-22T01:26:05.244Z,1002.08
2017-11-22T01:27:13.870Z,1002.11
2017-11-22T01:28:22.499Z,1002.1
2017-11-22T01:29:31.122Z,1002.04
2017-11-22T01:30:39.750Z,1002.01
2017-11-22T01:31:48.378Z,1002.08
2017-11-22T01:32:57.006Z,1002.07
2017-11-22T01:34:05.629Z,1002.03
2017-11-22T01:35:14.264Z,1002
2017-11-22T01:36:22.889Z,1002.02
2017-11-22T01:37:31.510Z,1001.97
2017-11-22T01:38:40.411Z,1001.96
2017-11-22T01:39:49.035Z,1001.99
2017-11-22T01:40:57.662Z,1002
2017-11-22T01:42:06.291Z,1001.93
2017-11-22T01:43:14.908Z,1001.9
2017-11-22T01:44:23.543Z,1001.9
2017-11-22T01:45:32.171Z,1001.88
2017-11-22T01:46:40.789Z,1001.87
2017-11-22T01:47:49.421Z,1001.88
2017-11-22T01:48:58.318Z,1001.84
2017-11-22T01:50:06.938Z,1001.77
2017-11-22T01:51:15.566Z,1001.85
2017-11-22T01:52:24.207Z,1001.84
2017-11-22T01:53:33.091Z,1001.9
2017-11-22T01:54:41.721Z,1001.89
2017-11-22T01:55:50.352Z,1001.85
2017-11-22T01:56:58.970Z,1001.85
2017-11-22T01:58:07.603Z,1001.7
2017-11-22T01:59:16.506Z,1001.77
2017-11-22T02:00:25.136Z,1001.76
2017-11-22T02:01:33.763Z,1001.77
2017-11-22T02:02:42.386Z,1001.74
2017-11-22T02:03:51.015Z,1001.71
2017-11-22T02:04:59.640Z,1001.71
2017-11-22T02:06:08.545Z,1001.64
2017-11-22T02:07:17.168Z,1001.69
2017-11-22T02:08:25.797Z,1001.68
2017-11-22T02:09:34.427Z,1001.67
2017-11-22T02:10:43.057Z,1001.58
2017-11-22T02:11:51.941Z,1001.6
2017-11-22T02:13:00.571Z,1001.61
2017-11-22T02:14:09.204Z,1001.59
2017-11-22T02:15:18.102Z,1001.52
2017-11-22T02:16:26.722Z,1001.46
2017-11-22T02:17:35.344Z,1001.48
2017-11-22T02:18:44.002Z,1001.36
2017-11-22T02:19:52.601Z,1001.32
2017-11-22T02:21:01.221Z,1001.39
2017-11-22T02:22:09.853Z,1001.33
2017-11-22T02:23:18.482Z,1001.36
2017-11-22T02:24:27.368Z,1001.34
2017-11-22T02:25:35.996Z,1001.28
2017-11-22T02:26:44.632Z,1001.31
2017-11-22T02:27:53.260Z,1001.28
2017-11-22T02:29:01.883Z,1001.35
2017-11-22T02:30:10.502Z,1001.38
2017-11-22T02:31:19.132Z,1001.39
2017-11-22T02:32:27.764Z,1001.34
2017-11-22T02:33:36.420Z,1001.32
2017-11-22T02:34:45.014Z,1001.29
2017-11-22T02:35:53.644Z,1001.31
2017-11-22T02:37:02.271Z,1001.31
2017-11-22T02:38:10.894Z,1001.33
2017-11-22T02:39:19.529Z,1001.3
2017-11-22T02:40:28.153Z,1001.35
2017-11-22T02:41:36.786Z,1001.22
2017-11-22T02:42:45.410Z,1001.33
2017-11-22T02:43:54.312Z,1001.34
2017-11-22T02:45:02.937Z,1001.33
2017-11-22T02:46:11.566Z,1001.35
2017-11-22T02:47:20.189Z,1001.37
2017-11-22T02:48:28.828Z,1001.37
2017-11-22T02:49:37.450Z,1001.39
2017-11-22T02:50:46.073Z,1001.42
2017-11-22T02:51:54.710Z,1001.37
2017-11-22T02:53:03.330Z,1001.38
2017-11-22T02:54:11.957Z,1001.42
2017-11-22T02:55:20.586Z,1001.43
2017-11-22T02:56:29.469Z,1001.42
2017-11-22T02:57:38.110Z,1001.39
2017-11-22T02:58:47.025Z,1001.44
2017-11-22T02:59:55.623Z,1001.43
2017-11-22T03:01:04.255Z,1001.43
2017-11-22T03:02:13.146Z,1001.56
2017-11-22T03:03:22.034Z,1001.51
2017-11-22T03:04:30.665Z,1001.52
2017-11-22T03:05:39.288Z,1001.47
2017-11-22T03:06:47.916Z,1001.5
2017-11-22T03:07:56.540Z,1001.47
2017-11-22T03:09:05.169Z,1001.42
2017-11-22T03:10:13.809Z,1001.37
2017-11-22T03:11:22.435Z,1001.4
2017-11-22T03:12:31.062Z,1001.42
2017-11-22T03:13:39.688Z,1001.42
2017-11-22T03:14:48.320Z,1001.45
2017-11-22T03:15:56.957Z,1001.41
2017-11-22T03:17:05.581Z,1001.37
2017-11-22T03:18:14.204Z,1001.41
2017-11-22T03:19:22.837Z,1001.43
2017-11-22T03:20:31.735Z,1001.44
2017-11-22T03:21:40.349Z,1001.44
2017-11-22T03:22:48.978Z,1001.47
2017-11-22T03:23:57.608Z,1001.48
2017-11-22T03:25:06.229Z,1001.42
2017-11-22T03:26:14.860Z,1001.43
2017-11-22T03:27:23.483Z,1001.41
2017-11-22T03:28:32.114Z,1001.41
2017-11-22T03:29:40.742Z,1001.38
2017-11-22T03:30:49.368Z,1001.43
2017-11-22T03:31:57.998Z,1001.44
2017-11-22T03:33:06.629Z,1001.43
2017-11-22T03:34:15.529Z,1001.44
2017-11-22T03:35:24.161Z,1001.41
2017-11-22T03:36:32.788Z,1001.36
2017-11-22T03:37:41.407Z,1001.39
2017-11-22T03:38:50.037Z,1001.34
2017-11-22T03:39:58.661Z,1001.3
2017-11-22T03:41:07.292Z,1001.28
2017-11-22T03:42:15.921Z,1001.28
2017-11-22T03:43:24.543Z,1001.32
2017-11-22T03:44:33.169Z,1001.26
2017-11-22T03:45:41.803Z,1001.25
2017-11-22T03:46:50.423Z,1001.3
2017-11-22T03:47:59.317Z,1001.31
2017-11-22T03:49:07.943Z,1001.28
2017-11-22T03:50:16.567Z,1001.23
2017-11-22T03:51:25.190Z,1001.28
2017-11-22T03:52:33.825Z,1001.2
2017-11-22T03:53:42.710Z,1001.22
2017-11-22T03:54:51.342Z,1001.26
2017-11-22T03:56:00.228Z,1001.27
2017-11-22T03:57:08.861Z,1001.24
2017-11-22T03:58:17.490Z,1001.27
2017-11-22T03:59:26.113Z,1001.23
2017-11-22T04:00:35.007Z,1001.23
2017-11-22T04:01:43.643Z,1001.21
2017-11-22T04:02:52.268Z,1001.18
2017-11-22T04:04:00.899Z,1001.07
2017-11-22T04:05:09.515Z,1001.12
2017-11-22T04:06:18.143Z,1001.06
2017-11-22T04:07:26.773Z,1001.04
2017-11-22T04:08:35.398Z,1001.02
2017-11-22T04:09:44.033Z,1001.08
2017-11-22T04:10:52.656Z,1001.11
2017-11-22T04:12:01.281Z,1001
2017-11-22T04:13:09.909Z,1001.05
2017-11-22T04:14:18.527Z,1001
2017-11-22T04:15:27.462Z,1000.99
2017-11-22T04:16:36.374Z,1000.96
2017-11-22T04:17:45.001Z,1000.95
2017-11-22T04:18:53.629Z,1000.94
2017-11-22T04:20:02.258Z,1000.91
2017-11-22T04:21:10.885Z,1000.9
2017-11-22T04:22:19.510Z,1000.91
2017-11-22T04:23:28.140Z,1000.86
2017-11-22T04:24:37.047Z,1000.8
2017-11-22T04:25:45.674Z,1000.8
2017-11-22T04:26:54.302Z,1000.86
2017-11-22T04:28:02.929Z,1000.86
2017-11-22T04:29:11.568Z,1000.88
2017-11-22T04:30:20.188Z,1000.72
2017-11-22T04:31:28.818Z,1000.7
2017-11-22T04:32:37.448Z,1000.75
2017-11-22T04:33:46.068Z,1000.78
2017-11-22T04:34:54.698Z,1000.7
2017-11-22T04:36:03.323Z,1000.81
2017-11-22T04:37:11.951Z,1000.77
2017-11-22T04:38:20.585Z,1000.74
2017-11-22T04:39:29.207Z,1000.83
2017-11-22T04:40:37.837Z,1000.83
2017-11-22T04:41:46.723Z,1000.82
2017-11-22T04:42:55.350Z,1000.8
2017-11-22T04:44:03.980Z,1000.78
2017-11-22T04:45:12.603Z,1000.82
2017-11-22T04:46:21.224Z,1000.79
2017-11-22T04:47:29.860Z,1000.82
2017-11-22T04:48:38.485Z,1000.81
2017-11-22T04:49:47.107Z,1000.77
2017-11-22T04:50:55.738Z,1000.72
2017-11-22T04:52:04.364Z,1000.82
2017-11-22T04:53:12.989Z,1000.81
2017-11-22T04:54:21.878Z,1000.81
2017-11-22T04:55:30.504Z,1000.83
2017-11-22T04:56:39.142Z,1000.87
2017-11-22T04:57:47.769Z,1000.87
2017-11-22T04:58:56.391Z,1000.87
2017-11-22T05:00:05.301Z,1000.96
2017-11-22T05:01:13.938Z,1000.92
2017-11-22T05:02:22.552Z,1000.86
2017-11-22T05:03:31.174Z,1000.98
2017-11-22T05:04:39.802Z,1000.91
2017-11-22T05:05:48.433Z,1000.9
2017-11-22T05:06:57.058Z,1000.96
2017-11-22T05:08:05.683Z,1000.91
2017-11-22T05:09:14.302Z,1000.93
2017-11-22T05:10:22.930Z,1000.92
2017-11-22T05:11:31.558Z,1000.86
2017-11-22T05:12:40.177Z,1000.91
2017-11-22T05:13:48.802Z,1000.9
2017-11-22T05:14:57.439Z,1000.9
2017-11-22T05:16:06.061Z,1000.95
2017-11-22T05:17:14.689Z,1000.95
2017-11-22T05:18:23.324Z,1000.92
2017-11-22T05:19:31.948Z,1000.96
2017-11-22T05:20:40.575Z,1000.98
2017-11-22T05:21:49.465Z,1000.93
2017-11-22T05:22:58.084Z,1000.96
2017-11-22T05:24:06.719Z,1000.93
2017-11-22T05:25:15.344Z,1000.86
2017-11-22T05:26:23.972Z,1000.8
2017-11-22T05:27:32.612Z,1000.79
2017-11-22T05:28:41.497Z,1000.84
2017-11-22T05:29:50.390Z,1000.81
2017-11-22T05:30:59.018Z,1000.96
2017-11-22T05:32:07.652Z,1000.82
2017-11-22T05:33:16.271Z,1000.87
2017-11-22T05:34:24.901Z,1000.88
2017-11-22T05:35:33.532Z,1000.9
2017-11-22T05:36:42.149Z,1000.93
2017-11-22T05:37:50.789Z,1000.94
2017-11-22T05:38:59.417Z,1000.98
2017-11-22T05:40:08.050Z,1000.91
2017-11-22T05:41:16.680Z,1000.94
2017-11-22T05:42:25.299Z,1000.97
2017-11-22T05:43:33.929Z,1001.02
2017-11-22T05:44:42.558Z,1001
2017-11-22T05:45:51.178Z,1001
2017-11-22T05:46:59.815Z,1000.91
2017-11-22T05:48:08.438Z,1000.96
2017-11-22T05:49:17.334Z,1000.94
2017-11-22T05:50:25.961Z,1000.9
2017-11-22T05:51:34.594Z,1000.85
2017-11-22T05:52:43.219Z,1000.83
2017-11-22T05:53:51.845Z,1000.95
2017-11-22T05:55:00.468Z,1000.9
2017-11-22T05:56:09.097Z,1000.92
2017-11-22T05:57:17.725Z,1000.84
2017-11-22T05:58:26.348Z,1000.93
2017-11-22T05:59:34.981Z,1000.9
2017-11-22T06:00:43.864Z,1000.88
2017-11-22T06:01:52.762Z,1000.92
2017-11-22T06:03:01.391Z,1000.89
2017-11-22T06:04:10.014Z,1000.86
2017-11-22T06:05:18.639Z,1000.92
2017-11-22T06:06:27.268Z,1000.96
2017-11-22T06:07:35.909Z,1000.94
2017-11-22T06:08:44.540Z,1000.93
2017-11-22T06:09:53.161Z,1000.92
2017-11-22T06:11:01.793Z,1000.93
2017-11-22T06:12:10.425Z,1000.89
2017-11-22T06:13:19.312Z,1000.9
2017-11-22T06:14:27.941Z,1000.86
2017-11-22T06:15:36.569Z,1000.9
2017-11-22T06:16:45.194Z,1000.88
2017-11-22T06:17:53.819Z,1000.84
2017-11-22T06:19:02.453Z,1000.88
2017-11-22T06:20:11.080Z,1000.9
2017-11-22T06:21:19.709Z,1000.88
2017-11-22T06:22:28.330Z,1000.9
2017-11-22T06:23:36.960Z,1000.89
2017-11-22T06:24:45.589Z,1000.94
2017-11-22T06:25:54.213Z,1000.88
2017-11-22T06:27:02.836Z,1000.88
2017-11-22T06:28:11.474Z,1000.89
2017-11-22T06:29:20.103Z,1000.85
2017-11-22T06:30:28.727Z,1000.88
2017-11-22T06:31:37.367Z,1000.84
2017-11-22T06:32:45.988Z,1000.87
2017-11-22T06:33:54.614Z,1000.83
2017-11-22T06:35:03.243Z,1000.84
2017-11-22T06:36:11.863Z,1000.88
2017-11-22T06:37:20.495Z,1000.89
2017-11-22T06:38:29.388Z,1000.87
2017-11-22T06:39:38.015Z,1000.92
2017-11-22T06:40:46.648Z,1000.85
2017-11-22T06:41:55.276Z,1000.9
2017-11-22T06:43:03.900Z,1000.87
2017-11-22T06:44:12.531Z,1000.91
2017-11-22T06:45:21.430Z,1000.93
2017-11-22T06:46:30.052Z,1000.91
2017-11-22T06:47:38.686Z,1000.96
2017-11-22T06:48:47.315Z,1000.91
2017-11-22T06:49:55.938Z,1000.93
2017-11-22T06:51:04.574Z,1000.96
2017-11-22T06:52:13.461Z,1000.97
2017-11-22T06:53:22.091Z,1001.02
2017-11-22T06:54:30.992Z,1001.01
2017-11-22T06:55:39.610Z,1001.07
2017-11-22T06:56:48.239Z,1001.05
2017-11-22T06:57:56.875Z,1001.03
2017-11-22T06:59:05.510Z,1001.06
2017-11-22T07:00:14.142Z,1001.08
2017-11-22T07:01:22.765Z,1001.04
2017-11-22T07:02:31.392Z,1001.02
2017-11-22T07:03:40.024Z,1000.99
2017-11-22T07:04:48.667Z,1001.02
2017-11-22T07:05:57.276Z,1001.02
2017-11-22T07:07:05.901Z,1001.03
2017-11-22T07:08:14.533Z,1001.09
2017-11-22T07:09:23.158Z,1001.09
2017-11-22T07:10:31.784Z,1001.19
2017-11-22T07:11:40.418Z,1001.15
2017-11-22T07:12:49.045Z,1001.22
2017-11-22T07:13:57.666Z,1001.24
2017-11-22T07:15:06.299Z,1001.2
2017-11-22T07:16:14.932Z,1001.22
2017-11-22T07:17:23.555Z,1001.25
2017-11-22T07:18:32.193Z,1001.25
2017-11-22T07:19:40.838Z,1001.18
2017-11-22T07:20:49.732Z,1001.2
2017-11-22T07:21:58.365Z,1001.23
2017-11-22T07:23:06.987Z,1001.2
2017-11-22T07:24:15.615Z,1001.19
2017-11-22T07:25:24.243Z,1001.21
2017-11-22T07:26:32.861Z,1001.24
2017-11-22T07:27:41.498Z,1001.27
2017-11-22T07:28:50.393Z,1001.21
2017-11-22T07:29:59.018Z,1001.2
2017-11-22T07:31:07.643Z,1001.22
2017-11-22T07:32:16.279Z,1001.24
2017-11-22T07:33:24.906Z,1001.26
2017-11-22T07:34:33.534Z,1001.22
2017-11-22T07:35:42.159Z,1001.23
2017-11-22T07:36:50.791Z,1001.23
2017-11-22T07:37:59.420Z,1001.18
2017-11-22T07:39:08.047Z,1001.16
2017-11-22T07:40:16.669Z,1001.11
2017-11-22T07:41:25.305Z,1001.17
2017-11-22T07:42:33.932Z,1001.17
2017-11-22T07:43:43.094Z,1001.29
2017-11-22T07:44:51.722Z,1001.2
2017-11-22T07:46:00.347Z,1001.24
2017-11-22T07:47:08.972Z,1001.18
2017-11-22T07:48:17.604Z,1001.19
2017-11-22T07:49:26.222Z,1001.19
2017-11-22T07:50:35.120Z,1001.23
2017-11-22T07:51:43.745Z,1001.2
2017-11-22T07:52:52.373Z,1001.2
2017-11-22T07:54:01.272Z,1001.16
2017-11-22T07:55:09.902Z,1001.17
2017-11-22T07:56:18.524Z,1001.17
2017-11-22T07:57:27.150Z,1001.2
2017-11-22T07:58:35.778Z,1001.17
2017-11-22T07:59:44.420Z,1001.15
2017-11-22T08:00:53.043Z,1001.25
2017-11-22T08:02:01.666Z,1001.21
2017-11-22T08:03:10.300Z,1001.2
2017-11-22T08:04:18.921Z,1001.2
2017-11-22T08:05:27.823Z,1001.27
2017-11-22T08:06:36.451Z,1001.25
2017-11-22T08:07:45.076Z,1001.21
2017-11-22T08:08:53.711Z,1001.29
2017-11-22T08:10:02.333Z,1001.32
2017-11-22T08:11:10.962Z,1001.27
2017-11-22T08:12:19.616Z,1001.23
2017-11-22T08:13:28.241Z,1001.25
2017-11-22T08:14:36.894Z,1001.26
2017-11-22T08:15:45.598Z,1001.24
2017-11-22T08:16:54.226Z,1001.24
2017-11-22T08:18:02.851Z,1001.32
2017-11-22T08:19:11.485Z,1001.29
2017-11-22T08:20:20.112Z,1001.31
2017-11-22T08:21:28.748Z,1001.37
2017-11-22T08:22:37.376Z,1001.34
2017-11-22T08:23:46.002Z,1001.42
2017-11-22T08:24:54.634Z,1001.34
2017-11-22T08:26:03.257Z,1001.37
2017-11-22T08:27:11.893Z,1001.41
2017-11-22T08:28:20.521Z,1001.37
2017-11-22T08:29:29.150Z,1001.47
2017-11-22T08:30:37.785Z,1001.44
2017-11-22T08:31:46.428Z,1001.5
2017-11-22T08:32:55.041Z,1001.44
2017-11-22T08:34:03.667Z,1001.46
2017-11-22T08:35:12.291Z,1001.39
2017-11-22T08:36:21.193Z,1001.48
2017-11-22T08:37:29.819Z,1001.52
2017-11-22T08:38:38.453Z,1001.55
2017-11-22T08:39:47.084Z,1001.49
2017-11-22T08:40:55.982Z,1001.42
2017-11-22T08:42:04.874Z,1001.49
2017-11-22T08:43:13.507Z,1001.45
2017-11-22T08:44:22.138Z,1001.47
2017-11-22T08:45:30.762Z,1001.44
2017-11-22T08:46:39.389Z,1001.47
2017-11-22T08:47:48.016Z,1001.46
2017-11-22T08:48:56.721Z,1001.48
2017-11-22T08:50:06.033Z,1001.54
2017-11-22T08:51:14.870Z,1001.53
2017-11-22T08:52:23.768Z,1001.53
2017-11-22T08:53:32.399Z,1001.54
2017-11-22T08:54:41.026Z,1001.47
2017-11-22T08:55:49.925Z,1001.49
2017-11-22T08:56:58.554Z,1001.53
2017-11-22T08:58:07.184Z,1001.52
2017-11-22T08:59:15.809Z,1001.47
2017-11-22T09:00:24.439Z,1001.48
2017-11-22T09:01:33.072Z,1001.46
2017-11-22T09:02:41.695Z,1001.53
2017-11-22T09:03:50.326Z,1001.52
2017-11-22T09:04:58.953Z,1001.52
2017-11-22T09:06:07.582Z,1001.54
2017-11-22T09:07:16.217Z,1001.62
2017-11-22T09:08:24.845Z,1001.6
2017-11-22T09:09:33.469Z,1001.55
2017-11-22T09:10:42.098Z,1001.56
2017-11-22T09:11:50.731Z,1001.54
2017-11-22T09:12:59.354Z,1001.61
2017-11-22T09:14:07.984Z,1001.55
2017-11-22T09:15:16.614Z,1001.57
2017-11-22T09:16:25.238Z,1001.6
2017-11-22T09:17:33.869Z,1001.54
2017-11-22T09:18:42.499Z,1001.56
2017-11-22T09:19:51.131Z,1001.64
2017-11-22T09:20:59.781Z,1001.68
2017-11-22T09:22:08.676Z,1001.61
2017-11-22T09:23:17.303Z,1001.66
2017-11-22T09:24:25.934Z,1001.65
2017-11-22T09:25:34.556Z,1001.7
2017-11-22T09:26:43.190Z,1001.71
2017-11-22T09:27:51.828Z,1001.64
2017-11-22T09:29:00.454Z,1001.74
2017-11-22T09:30:09.351Z,1001.74
2017-11-22T09:31:18.249Z,1001.74
2017-11-22T09:32:26.875Z,1001.71
2017-11-22T09:33:35.509Z,1001.76
2017-11-22T09:34:44.133Z,1001.79
2017-11-22T09:35:52.763Z,1001.77
2017-11-22T09:37:01.397Z,1001.73
2017-11-22T09:38:10.021Z,1001.79
2017-11-22T09:39:18.649Z,1001.8
2017-11-22T09:40:27.289Z,1001.75
2017-11-22T09:41:35.911Z,1001.8
2017-11-22T09:42:44.540Z,1001.82
2017-11-22T09:43:53.176Z,1001.79
2017-11-22T09:45:01.802Z,1001.79
2017-11-22T09:46:10.430Z,1001.87
2017-11-22T09:47:19.061Z,1001.86
2017-11-22T09:48:27.685Z,1001.91
2017-11-22T09:49:36.329Z,1001.87
2017-11-22T09:50:44.948Z,1001.86
2017-11-22T09:51:53.583Z,1001.85
2017-11-22T09:53:02.483Z,1001.94
2017-11-22T09:54:11.099Z,1001.91
2017-11-22T09:55:19.728Z,1001.92
2017-11-22T09:56:28.355Z,1001.96
2017-11-22T09:57:36.980Z,1002.01
2017-11-22T09:58:45.616Z,1001.95
2017-11-22T09:59:54.244Z,1001.93
2017-11-22T10:01:02.882Z,1001.93
2017-11-22T10:02:11.508Z,1001.99
2017-11-22T10:03:20.143Z,1001.97
2017-11-22T10:04:28.773Z,1002
2017-11-22T10:05:37.405Z,1001.96
2017-11-22T10:06:46.028Z,1001.94
2017-11-22T10:07:54.666Z,1001.98
2017-11-22T10:09:03.296Z,1001.99
2017-11-22T10:10:11.923Z,1002.01
2017-11-22T10:11:20.556Z,1001.99
2017-11-22T10:12:29.186Z,1002
2017-11-22T10:13:37.815Z,1001.96
2017-11-22T10:14:46.445Z,1001.97
2017-11-22T10:15:55.068Z,1001.92
2017-11-22T10:17:03.972Z,1001.92
2017-11-22T10:18:13.132Z,1001.93
2017-11-22T10:19:21.763Z,1001.93
2017-11-22T10:20:30.681Z,1001.93
2017-11-22T10:21:39.300Z,1001.87
2017-11-22T10:22:47.926Z,1001.91
2017-11-22T10:23:56.557Z,1001.9
2017-11-22T10:25:05.191Z,1001.91
2017-11-22T10:26:13.810Z,1001.92
2017-11-22T10:27:22.447Z,1001.96
2017-11-22T10:28:31.080Z,1001.93
2017-11-22T10:29:39.703Z,1001.98
2017-11-22T10:30:48.640Z,1001.96
2017-11-22T10:31:57.268Z,1001.96
2017-11-22T10:33:05.899Z,1001.95
2017-11-22T10:34:14.529Z,1001.9
2017-11-22T10:35:23.149Z,1001.82
2017-11-22T10:36:31.784Z,1001.83
2017-11-22T10:37:40.415Z,1001.9
2017-11-22T10:38:49.037Z,1001.84
2017-11-22T10:39:57.944Z,1001.9
2017-11-22T10:41:06.576Z,1001.89
2017-11-22T10:42:15.207Z,1001.92
2017-11-22T10:43:23.834Z,1001.97
2017-11-22T10:44:32.468Z,1001.89
2017-11-22T10:45:41.100Z,1001.92
2017-11-22T10:46:49.735Z,1001.9
2017-11-22T10:47:58.421Z,1001.91
2017-11-22T10:49:07.372Z,1001.93
2017-11-22T10:50:16.067Z,1001.92
2017-11-22T10:51:24.691Z,1001.88
2017-11-22T10:52:33.980Z,1001.91
2017-11-22T10:53:42.997Z,1001.91
2017-11-22T10:54:51.751Z,1001.91
2017-11-22T10:56:01.182Z,1001.99
2017-11-22T10:57:11.696Z,1002.05
2017-11-22T10:58:20.608Z,1002
2017-11-22T10:59:29.279Z,1002.03
2017-11-22T11:00:38.065Z,1002.02
2017-11-22T11:01:46.697Z,1001.98
2017-11-22T11:02:55.591Z,1001.94
2017-11-22T11:04:04.222Z,1001.95
2017-11-22T11:05:12.860Z,1001.91
2017-11-22T11:06:21.480Z,1001.89
2017-11-22T11:07:30.116Z,1001.85
2017-11-22T11:08:38.752Z,1001.88
2017-11-22T11:09:47.392Z,1001.95
2017-11-22T11:10:56.032Z,1001.96
2017-11-22T11:12:04.669Z,1002
2017-11-22T11:13:13.302Z,1001.94
2017-11-22T11:14:22.105Z,1001.95
2017-11-22T11:15:33.334Z,1001.96
2017-11-22T11:16:41.971Z,1001.94
2017-11-22T11:17:50.595Z,1001.94
2017-11-22T11:18:59.218Z,1001.97
2017-11-22T11:20:07.933Z,1001.93
2017-11-22T11:21:16.626Z,1001.98
2017-11-22T11:22:25.302Z,1002.06
2017-11-22T11:23:33.939Z,1002.12
2017-11-22T11:24:42.588Z,1002.01
2017-11-22T11:25:51.253Z,1002.03
2017-11-22T11:26:59.879Z,1002.08
2017-11-22T11:28:08.507Z,1001.96
2017-11-22T11:29:17.132Z,1001.97
2017-11-22T11:30:25.768Z,1001.95
2017-11-22T11:31:34.397Z,1001.94
2017-11-22T11:32:43.023Z,1001.95
2017-11-22T11:33:51.660Z,1001.9
2017-11-22T11:35:00.288Z,1001.9
2017-11-22T11:36:08.914Z,1001.96
2017-11-22T11:37:17.550Z,1001.95
2017-11-22T11:38:26.178Z,1001.93
2017-11-22T11:39:36.232Z,1001.97
2017-11-22T11:40:45.128Z,1001.94
2017-11-22T11:41:53.761Z,1001.93
2017-11-22T11:43:02.385Z,1001.9
2017-11-22T11:44:11.037Z,1001.96
2017-11-22T11:45:19.656Z,1001.95
2017-11-22T11:46:28.276Z,1001.97
2017-11-22T11:47:36.909Z,1001.97
2017-11-22T11:48:45.533Z,1001.94
2017-11-22T11:49:54.168Z,1001.93
2017-11-22T11:51:02.796Z,1001.81
2017-11-22T11:52:11.433Z,1001.88
2017-11-22T11:53:20.063Z,1001.89
2017-11-22T11:54:28.696Z,1001.87
2017-11-22T11:55:37.330Z,1001.86
2017-11-22T11:56:45.967Z,1001.9
2017-11-22T11:57:54.587Z,1001.85
2017-11-22T11:59:03.219Z,1001.87
2017-11-22T12:00:11.849Z,1001.9
2017-11-22T12:01:20.482Z,1001.92
2017-11-22T12:02:29.110Z,1001.87
2017-11-22T12:03:37.739Z,1001.91
2017-11-22T12:04:46.370Z,1001.89
2017-11-22T12:05:55.271Z,1001.91
2017-11-22T12:07:04.167Z,1001.86
2017-11-22T12:08:12.799Z,1001.88
2017-11-22T12:09:21.429Z,1001.88
2017-11-22T12:10:30.422Z,1001.85
2017-11-22T12:11:39.066Z,1001.86
2017-11-22T12:12:47.824Z,1001.82
2017-11-22T12:13:56.715Z,1001.79
2017-11-22T12:15:05.359Z,1001.76
2017-11-22T12:16:13.985Z,1001.78
2017-11-22T12:17:22.617Z,1001.69
2017-11-22T12:18:31.247Z,1001.68
2017-11-22T12:19:39.870Z,1001.66
2017-11-22T12:20:48.526Z,1001.59
2017-11-22T12:21:57.487Z,1001.6
2017-11-22T12:23:06.255Z,1001.63
2017-11-22T12:24:14.888Z,1001.68
2017-11-22T12:25:23.515Z,1001.64
2017-11-22T12:26:32.147Z,1001.71
2017-11-22T12:27:40.796Z,1001.66
2017-11-22T12:28:49.731Z,1001.66
2017-11-22T12:29:58.745Z,1001.7
2017-11-22T12:31:07.435Z,1001.64
2017-11-22T12:32:16.108Z,1001.66
2017-11-22T12:33:25.149Z,1001.64
2017-11-22T12:34:33.801Z,1001.63
2017-11-22T12:35:42.709Z,1001.63
2017-11-22T12:36:51.345Z,1001.62
2017-11-22T12:38:00.499Z,1001.61
2017-11-22T12:39:09.134Z,1001.59
2017-11-22T12:40:17.788Z,1001.57
2017-11-22T12:41:26.696Z,1001.53
2017-11-22T12:42:35.331Z,1001.48
2017-11-22T12:43:43.955Z,1001.56
2017-11-22T12:44:52.584Z,1001.52
2017-11-22T12:46:01.217Z,1001.52
2017-11-22T12:47:09.835Z,1001.55
2017-11-22T12:48:18.470Z,1001.59
2017-11-22T12:49:27.102Z,1001.59
2017-11-22T12:50:35.737Z,1001.59
2017-11-22T12:51:44.367Z,1001.58
2017-11-22T12:52:52.991Z,1001.63
2017-11-22T12:54:01.621Z,1001.6
2017-11-22T12:55:10.518Z,1001.59
2017-11-22T12:56:19.141Z,1001.55
2017-11-22T12:57:27.781Z,1001.55
2017-11-22T12:58:36.410Z,1001.55
2017-11-22T12:59:45.044Z,1001.52
2017-11-22T13:00:53.675Z,1001.52
2017-11-22T13:02:02.300Z,1001.48
2017-11-22T13:03:10.933Z,1001.44
2017-11-22T13:04:19.568Z,1001.33
2017-11-22T13:05:28.190Z,1001.32
2017-11-22T13:06:37.089Z,1001.3
2017-11-22T13:07:45.727Z,1001.33
2017-11-22T13:08:54.354Z,1001.31
2017-11-22T13:10:02.981Z,1001.35
2017-11-22T13:11:11.620Z,1001.28
2017-11-22T13:12:20.252Z,1001.28
2017-11-22T13:13:28.880Z,1001.3
2017-11-22T13:14:39.361Z,1001.25
2017-11-22T13:15:47.995Z,1001.27
2017-11-22T13:16:56.630Z,1001.26
2017-11-22T13:18:05.533Z,1001.29
2017-11-22T13:19:14.160Z,1001.31
2017-11-22T13:20:22.798Z,1001.25
2017-11-22T13:21:31.427Z,1001.2
2017-11-22T13:22:40.056Z,1001.24
2017-11-22T13:23:48.689Z,1001.16
2017-11-22T13:24:57.317Z,1001.16
2017-11-22T13:26:05.943Z,1001.2
2017-11-22T13:27:14.571Z,1001.2
2017-11-22T13:28:23.226Z,1001.17
2017-11-22T13:29:32.124Z,1001.15
2017-11-22T13:30:40.754Z,1001.12
2017-11-22T13:31:49.379Z,1001.11
2017-11-22T13:32:58.021Z,1001.1
2017-11-22T13:34:06.649Z,1001.17
2017-11-22T13:35:15.274Z,1001.11
2017-11-22T13:36:23.906Z,1001.09
2017-11-22T13:37:32.538Z,1001.09
2017-11-22T13:38:41.160Z,1001.06
2017-11-22T13:39:49.792Z,1001
2017-11-22T13:40:58.420Z,1000.99
2017-11-22T13:42:07.054Z,1000.98
2017-11-22T13:43:15.686Z,1000.99
2017-11-22T13:44:24.315Z,1000.98
2017-11-22T13:45:32.945Z,1000.95
2017-11-22T13:46:41.578Z,1000.96
2017-11-22T13:47:50.202Z,1000.94
2017-11-22T13:48:58.840Z,1000.98
2017-11-22T13:50:07.471Z,1000.94
2017-11-22T13:51:16.112Z,1000.95
2017-11-22T13:52:24.741Z,1000.9
2017-11-22T13:53:33.371Z,1000.91
2017-11-22T13:54:42.005Z,1000.93